Time;durP1;ratioP1;P1;durP2;ratioP2;P2;SDS_P1;SDS_P2;PMS_P1;PMS_P2;Temp;Humidity;BMP_temperature;BMP_pressure;BME280_temperature;BME280_humidity;BME280_pressure;Samples;Min_cycle;Max_cycle;Signal;HPM_P1;HPM_P2
2022/01/06 06:48:57;;;;;;;3.20;1.00;;;;;;;;;;10499890;28;20459;-86
2022/01/06 06:53:58;;;;;;;;;;;;;;;;;;10463528;28;20548;-86
2022/01/06 06:58:59;;;;;;;4.43;1.33;;;;;;;;;;10462739;28;19909;-87
2022/01/06 07:04:00;;;;;;;3.63;1.10;;;;;;;;;;10465408;28;20036;-86
2022/01/06 07:09:01;;;;;;;5.00;1.13;;;;;;;;;;10467122;28;20039;-87
2022/01/06 07:14:02;;;;;;;5.03;1.65;;;;;;;;;;10466329;28;20468;-87
2022/01/06 07:19:03;;;;;;;;;;;;;;;;;;10466714;28;20033;-87
2022/01/06 07:24:05;;;;;;;2.38;1.10;;;;;;;;;;10464773;28;20282;-88
2022/01/06 07:29:06;;;;;;;5.78;2.00;;;;;;;;;;10466817;28;20040;-86
2022/01/06 07:34:07;;;;;;;;;;;;;;;;;;10466449;28;20036;-86
2022/01/06 07:39:08;;;;;;;4.20;1.60;;;;;;;;;;10463265;28;19915;-85
2022/01/06 07:44:09;;;;;;;;;;;;;;;;;;10463708;28;20507;-86
2022/01/06 07:49:10;;;;;;;5.00;1.90;;;;;;;;;;10460581;28;19905;-87
2022/01/06 07:54:11;;;;;;;;;;;;;;;;;;10463263;28;20089;-86
2022/01/06 07:59:11;;;;;;;4.82;1.63;;;;;;;;;;10463330;28;20006;-84
2022/01/06 08:04:12;;;;;;;;;;;;;;;;;;10441384;28;20033;-83
2022/01/06 08:09:13;;;;;;;7.32;3.25;;;;;;;;;;10443808;28;19973;-82
2022/01/06 08:14:14;;;;;;;;;;;;;;;;;;10448853;28;20030;-82
2022/01/06 08:19:16;;;;;;;7.38;3.00;;;;;;;;;;10452223;28;19937;-81
2022/01/06 08:24:17;;;;;;;7.13;2.83;;;;;;;;;;10452947;28;20089;-81
2022/01/06 08:29:18;;;;;;;;;;;;;;;;;;10452250;28;20041;-83
2022/01/06 08:34:19;;;;;;;5.60;2.13;;;;;;;;;;10450261;28;20047;-82
2022/01/06 08:39:23;;;;;;;;;;;;;;;;;;10449574;28;20018;-81
2022/01/06 08:44:24;;;;;;;6.10;3.15;;;;;;;;;;10448591;28;19938;-80
2022/01/06 08:49:25;;;;;;;5.55;2.78;;;;;;;;;;10449323;28;20033;-82
2022/01/06 08:54:26;;;;;;;;;;;;;;;;;;10448843;28;20068;-81
2022/01/06 08:59:27;;;;;;;6.88;2.72;;;;;;;;;;10448003;28;19977;-81
2022/01/06 09:04:28;;;;;;;;;;;;;;;;;;10447355;28;20038;-81
2022/01/06 09:09:29;;;;;;;6.38;2.50;;;;;;;;;;10446860;28;19932;-81
2022/01/06 09:14:30;;;;;;;6.13;2.92;;;;;;;;;;10447767;28;20097;-82
2022/01/06 09:19:31;;;;;;;;;;;;;;;;;;10450143;28;20026;-82
2022/01/06 09:24:32;;;;;;;6.05;2.53;;;;;;;;;;10446309;28;19932;-81
2022/01/06 09:29:33;;;;;;;5.25;2.58;;;;;;;;;;10444116;28;20029;-82
2022/01/06 09:34:34;;;;;;;;;;;;;;;;;;10448239;28;20065;-82
2022/01/06 09:39:35;;;;;;;6.38;2.63;;;;;;;;;;10444267;28;19963;-82
2022/01/06 09:44:37;;;;;;;4.88;2.30;;;;;;;;;;10445901;28;20040;-84
2022/01/06 09:49:39;;;;;;;7.80;3.08;;;;;;;;;;10445182;28;20047;-82
2022/01/06 09:54:41;;;;;;;6.32;2.67;;;;;;;;;;10442015;28;20040;-81
2022/01/06 09:59:44;;;;;;;6.93;2.83;;;;;;;;;;10447833;28;20029;-81
2022/01/06 10:04:47;;;;;;;5.85;2.65;;;;;;;;;;10452906;28;20037;-81
2022/01/06 10:09:48;;;;;;;5.90;2.50;;;;;;;;;;10457046;28;20022;-81
2022/01/06 10:14:50;;;;;;;;;;;;;;;;;;10448001;28;20040;-80
2022/01/06 10:19:51;;;;;;;6.78;2.75;;;;;;;;;;10453730;28;19911;-79
2022/01/06 10:24:54;;;;;;;;;;;;;;;;;;10453548;28;20087;-80
2022/01/06 10:29:55;;;;;;;7.65;3.22;;;;;;;;;;10436394;28;19912;-80
2022/01/06 10:34:56;;;;;;;;;;;;;;;;;;10437194;28;20033;-80
2022/01/06 10:39:58;;;;;;;6.93;3.70;;;;;;;;;;10441997;28;19988;-81
2022/01/06 10:45:08;;;;;;;6.05;2.88;;;;;;;;;;10438763;28;20542;-81
2022/01/06 10:50:09;;;;;;;5.30;2.50;;;;;;;;;;10438271;28;20021;-81
2022/01/06 10:55:10;;;;;;;;;;;;;;;;;;10441204;28;20033;-81
2022/01/06 11:00:12;;;;;;;6.97;2.72;;;;;;;;;;10441100;28;19992;-82
2022/01/06 11:05:13;;;;;;;7.72;2.72;;;;;;;;;;10439754;28;20132;-82
2022/01/06 11:10:16;;;;;;;;;;;;;;;;;;10439361;28;20060;-82
2022/01/06 11:15:17;;;;;;;6.32;2.88;;;;;;;;;;10443438;28;19932;-83
2022/01/06 11:20:28;;;;;;;5.65;2.65;;;;;;;;;;10453137;28;20365;-82
2022/01/06 11:25:34;;;;;;;;;;;;;;;;;;10446298;28;20371;-82
2022/01/06 11:30:53;;;;;;;8.35;2.97;;;;;;;;;;10525196;22;19951;-81
2022/01/06 11:35:55;;;;;;;8.77;3.92;;;;;;;;;;10502261;28;20124;-81
2022/01/06 11:41:07;;;;;;;5.00;2.33;;;;;;;;;;10456842;28;20021;-82
2022/01/06 11:46:09;;;;;;;6.90;2.80;;;;;;;;;;10455058;28;20096;-81
2022/01/06 11:51:21;;;;;;;6.40;2.70;;;;;;;;;;10454316;28;20064;-81
2022/01/06 11:56:23;;;;;;;7.85;3.15;;;;;;;;;;10436453;28;20535;-81
2022/01/06 12:01:24;;;;;;;11.48;4.90;;;;;;;;;;10454827;28;20021;-82
2022/01/06 12:06:25;;;;;;;;;;;;;;;;;;10455348;28;20120;-82
2022/01/06 12:11:28;;;;;;;10.15;4.93;;;;;;;;;;10453822;28;19959;-82
2022/01/06 12:16:30;;;;;;;9.43;5.00;;;;;;;;;;10455610;28;20029;-82
2022/01/06 12:21:31;;;;;;;13.80;6.65;;;;;;;;;;10454831;28;20045;-82
2022/01/06 12:26:32;;;;;;;;;;;;;;;;;;10451596;28;20065;-81
2022/01/06 12:31:33;;;;;;;12.88;5.07;;;;;;;;;;10452003;28;19936;-81
2022/01/06 12:36:37;;;;;;;7.47;3.90;;;;;;;;;;10462222;28;20380;-83
2022/01/06 12:41:39;;;;;;;8.90;3.80;;;;;;;;;;10457670;28;20117;-81
2022/01/06 12:46:44;;;;;;;12.13;4.20;;;;;;;;;;10455172;28;20079;-80
2022/01/06 12:51:46;;;;;;;8.63;3.97;;;;;;;;;;10464305;28;20044;-81
2022/01/06 12:56:51;;;;;;;7.70;3.35;;;;;;;;;;10466197;28;20041;-83
2022/01/06 13:01:54;;;;;;;6.97;3.90;;;;;;;;;;10453833;28;20048;-81
2022/01/06 13:06:56;;;;;;;9.25;3.97;;;;;;;;;;10453764;28;20032;-82
2022/01/06 13:11:59;;;;;;;9.13;4.53;;;;;;;;;;10451840;28;20059;-82
2022/01/06 13:17:19;;;;;;;7.00;3.53;;;;;;;;;;10450511;28;20033;-81
2022/01/06 13:28:01;;;;;;;8.90;3.80;;;;;;;;;;10450645;28;20041;-80
2022/01/06 13:33:04;;;;;;;9.30;4.35;;;;;;;;;;10434674;28;20040;-82
2022/01/06 13:38:13;;;;;;;9.40;4.50;;;;;;;;;;10451816;28;20116;-82
2022/01/06 13:43:19;;;;;;;8.95;4.32;;;;;;;;;;10461004;28;20435;-82
2022/01/06 13:53:29;;;;;;;7.72;4.40;;;;;;;;;;10449516;28;20037;-82
2022/01/06 13:58:31;;;;;;;10.05;4.90;;;;;;;;;;10447554;28;20033;-83
2022/01/06 14:03:36;;;;;;;11.82;5.07;;;;;;;;;;10449380;28;20022;-82
2022/01/06 14:08:38;;;;;;;10.38;5.00;;;;;;;;;;10448174;28;20033;-82
2022/01/06 14:13:39;;;;;;;10.93;4.75;;;;;;;;;;10448346;28;20032;-83
2022/01/06 14:18:41;;;;;;;9.77;4.57;;;;;;;;;;10448838;28;20052;-83
2022/01/06 14:23:42;;;;;;;12.88;5.10;;;;;;;;;;10451342;28;20026;-82
2022/01/06 14:28:43;;;;;;;9.20;5.32;;;;;;;;;;10434354;28;20037;-81
2022/01/06 14:33:44;;;;;;;;;;;;;;;;;;10452038;28;20033;-82
2022/01/06 14:38:45;;;;;;;14.30;6.75;;;;;;;;;;10456599;28;19976;-82
2022/01/06 14:43:47;;;;;;;11.55;6.25;;;;;;;;;;10456079;28;20060;-81
2022/01/06 14:48:48;;;;;;;11.82;6.20;;;;;;;;;;10454353;28;20046;-81
2022/01/06 14:53:58;;;;;;;10.35;5.80;;;;;;;;;;10460619;28;20013;-82
2022/01/06 14:58:59;;;;;;;9.83;5.70;;;;;;;;;;10453029;28;20042;-82
2022/01/06 15:04:00;;;;;;;;;;;;;;;;;;10448519;28;20060;-81
2022/01/06 15:09:01;;;;;;;8.75;5.00;;;;;;;;;;10452472;28;19956;-81
2022/01/06 15:14:02;;;;;;;;;;;;;;;;;;10456180;28;20025;-81
2022/01/06 15:19:04;;;;;;;13.85;6.68;;;;;;;;;;10455996;28;19932;-81
2022/01/06 15:24:06;;;;;;;12.57;6.18;;;;;;;;;;10455842;28;20026;-82
2022/01/06 15:29:07;;;;;;;11.15;5.70;;;;;;;;;;10456493;28;20029;-82
2022/01/06 15:34:08;;;;;;;;;;;;;;;;;;10456111;28;20030;-81
2022/01/06 15:39:10;;;;;;;10.75;5.80;;;;;;;;;;10455666;28;19955;-83
2022/01/06 15:44:11;;;;;;;13.70;6.43;;;;;;;;;;10456464;28;20039;-84
2022/01/06 15:49:12;;;;;;;;;;;;;;;;;;10461000;28;20483;-84
2022/01/06 15:54:17;;;;;;;10.63;5.82;;;;;;;;;;10461520;28;19937;-83
2022/01/06 15:59:23;;;;;;;12.82;5.82;;;;;;;;;;10465416;28;20033;-83
2022/01/06 16:09:44;;;;;;;12.88;5.68;;;;;;;;;;10453472;28;20041;-83
2022/01/06 16:14:45;;;;;;;10.95;5.90;;;;;;;;;;10449846;28;20105;-82
2022/01/06 16:19:47;;;;;;;;;;;;;;;;;;10453711;28;20029;-83
2022/01/06 16:24:48;;;;;;;13.10;6.78;;;;;;;;;;10452094;28;19936;-83
2022/01/06 16:29:49;;;;;;;;;;;;;;;;;;10455425;28;20121;-83
2022/01/06 16:34:51;;;;;;;12.75;6.15;;;;;;;;;;10453956;28;19979;-83
2022/01/06 16:39:52;;;;;;;10.68;6.10;;;;;;;;;;10454800;28;20068;-82
2022/01/06 16:44:53;;;;;;;10.10;5.63;;;;;;;;;;10457268;28;20049;-83
2022/01/06 16:49:54;;;;;;;;;;;;;;;;;;10461225;28;20037;-82
2022/01/06 16:54:55;;;;;;;8.43;4.85;;;;;;;;;;10467281;28;19905;-82
2022/01/06 16:59:56;;;;;;;;;;;;;;;;;;10447118;28;20022;-83
2022/01/06 17:04:57;;;;;;;12.68;5.13;;;;;;;;;;10446810;28;20263;-84
2022/01/06 17:09:58;;;;;;;;;;;;;;;;;;10467602;28;20034;-84
2022/01/06 17:14:59;;;;;;;9.70;5.22;;;;;;;;;;10467487;28;19916;-82
2022/01/06 17:20:00;;;;;;;;;;;;;;;;;;10467813;28;20038;-84
2022/01/06 17:25:01;;;;;;;10.95;5.57;;;;;;;;;;10446771;28;19909;-83
